sensor_id;sensor_type;location;lat;lon;timestamp;pressure;altitude;pressure_sealevel;temperature;humidity
46836;BME280;32573;51.290;6.926;2024-02-26T00:00:40;98434.09;;;8.29;100.00
46836;BME280;32573;51.290;6.926;2024-02-26T00:03:09;98414.09;;;8.31;100.00
46836;BME280;32573;51.290;6.926;2024-02-26T00:05:37;98407.19;;;8.31;100.00
46836;BME280;32573;51.290;6.926;2024-02-26T00:08:07;98408.91;;;8.32;100.00
46836;BME280;32573;51.290;6.926;2024-02-26T00:10:36;98418.47;;;8.33;100.00
46836;BME280;32573;51.290;6.926;2024-02-26T00:13:04;98404.59;;;8.34;100.00
46836;BME280;32573;51.290;6.926;2024-02-26T00:15:32;98406.31;;;8.34;100.00
46836;BME280;32573;51.290;6.926;2024-02-26T00:18:02;98406.31;;;8.35;100.00
46836;BME280;32573;51.290;6.926;2024-02-26T00:20:31;98402.88;;;8.36;100.00
46836;BME280;32573;51.290;6.926;2024-02-26T00:22:59;98402.88;;;8.36;100.00
46836;BME280;32573;51.290;6.926;2024-02-26T00:25:28;98409.81;;;8.37;100.00
46836;BME280;32573;51.290;6.926;2024-02-26T00:27:57;98406.34;;;8.38;100.00
46836;BME280;32573;51.290;6.926;2024-02-26T00:30:25;98421.09;;;8.38;100.00
46836;BME280;32573;51.290;6.926;2024-02-26T00:32:54;98427.19;;;8.38;100.00
46836;BME280;32573;51.290;6.926;2024-02-26T00:35:23;98439.41;;;8.39;100.00
46836;BME280;32573;51.290;6.926;2024-02-26T00:37:51;98431.59;;;8.39;100.00
46836;BME280;32573;51.290;6.926;2024-02-26T00:40:20;98434.19;;;8.39;100.00
46836;BME280;32573;51.290;6.926;2024-02-26T00:42:50;98429.84;;;8.40;100.00
46836;BME280;32573;51.290;6.926;2024-02-26T00:45:19;98435.94;;;8.40;100.00
46836;BME280;32573;51.290;6.926;2024-02-26T00:47:47;98428.97;;;8.41;100.00
46836;BME280;32573;51.290;6.926;2024-02-26T00:50:16;98422.06;;;8.41;100.00
46836;BME280;32573;51.290;6.926;2024-02-26T00:52:44;98429.00;;;8.42;100.00
46836;BME280;32573;51.290;6.926;2024-02-26T00:55:13;98430.75;;;8.42;100.00
46836;BME280;32573;51.290;6.926;2024-02-26T00:57:41;98431.59;;;8.41;100.00
46836;BME280;32573;51.290;6.926;2024-02-26T01:00:12;98425.50;;;8.40;100.00
46836;BME280;32573;51.290;6.926;2024-02-26T01:02:41;98428.13;;;8.40;100.00
46836;BME280;32573;51.290;6.926;2024-02-26T01:05:10;98442.88;;;8.40;100.00
46836;BME280;32573;51.290;6.926;2024-02-26T01:07:39;98444.63;;;8.39;100.00
46836;BME280;32573;51.290;6.926;2024-02-26T01:10:08;98440.22;;;8.38;100.00
46836;BME280;32573;51.290;6.926;2024-02-26T01:12:36;98442.84;;;8.38;100.00
46836;BME280;32573;51.290;6.926;2024-02-26T01:15:05;98441.97;;;8.38;100.00
46836;BME280;32573;51.290;6.926;2024-02-26T01:17:35;98455.88;;;8.38;100.00
46836;BME280;32573;51.290;6.926;2024-02-26T01:20:05;98441.09;;;8.37;100.00
46836;BME280;32573;51.290;6.926;2024-02-26T01:22:35;98449.78;;;8.36;100.00
46836;BME280;32573;51.290;6.926;2024-02-26T01:25:04;98454.13;;;8.37;100.00
46836;BME280;32573;51.290;6.926;2024-02-26T01:27:32;98442.81;;;8.35;100.00
46836;BME280;32573;51.290;6.926;2024-02-26T01:30:01;98444.56;;;8.35;100.00
46836;BME280;32573;51.290;6.926;2024-02-26T01:32:31;98446.25;;;8.33;100.00
46836;BME280;32573;51.290;6.926;2024-02-26T01:35:01;98442.78;;;8.32;100.00
46836;BME280;32573;51.290;6.926;2024-02-26T01:37:30;98444.50;;;8.30;100.00
46836;BME280;32573;51.290;6.926;2024-02-26T01:39:58;98439.28;;;8.30;100.00
46836;BME280;32573;51.290;6.926;2024-02-26T01:42:26;98443.63;;;8.30;100.00
46836;BME280;32573;51.290;6.926;2024-02-26T01:44:56;98439.28;;;8.30;100.00
46836;BME280;32573;51.290;6.926;2024-02-26T01:47:25;98433.22;;;8.30;100.00
46836;BME280;32573;51.290;6.926;2024-02-26T01:49:54;98435.78;;;8.28;100.00
46836;BME280;32573;51.290;6.926;2024-02-26T01:52:24;98441.91;;;8.29;100.00
46836;BME280;32573;51.290;6.926;2024-02-26T01:54:52;98437.53;;;8.28;100.00
46836;BME280;32573;51.290;6.926;2024-02-26T01:57:21;98436.63;;;8.26;100.00
46836;BME280;32573;51.290;6.926;2024-02-26T01:59:49;98437.50;;;8.26;100.00
46836;BME280;32573;51.290;6.926;2024-02-26T02:02:17;98438.38;;;8.25;100.00
46836;BME280;32573;51.290;6.926;2024-02-26T02:04:46;98445.34;;;8.25;100.00
46836;BME280;32573;51.290;6.926;2024-02-26T02:07:14;98445.31;;;8.23;100.00
46836;BME280;32573;51.290;6.926;2024-02-26T02:09:44;98440.09;;;8.21;100.00
46836;BME280;32573;51.290;6.926;2024-02-26T02:12:12;98442.69;;;8.20;100.00
46836;BME280;32573;51.290;6.926;2024-02-26T02:14:41;98444.41;;;8.19;100.00
46836;BME280;32573;51.290;6.926;2024-02-26T02:17:10;98447.00;;;8.18;100.00
46836;BME280;32573;51.290;6.926;2024-02-26T02:19:38;98452.19;;;8.15;100.00
46836;BME280;32573;51.290;6.926;2024-02-26T02:22:08;98453.06;;;8.14;100.00
46836;BME280;32573;51.290;6.926;2024-02-26T02:24:36;98451.28;;;8.13;100.00
46836;BME280;32573;51.290;6.926;2024-02-26T02:27:05;98459.13;;;8.11;100.00
46836;BME280;32573;51.290;6.926;2024-02-26T02:29:33;98468.63;;;8.11;100.00
46836;BME280;32573;51.290;6.926;2024-02-26T02:32:02;98468.63;;;8.08;100.00
46836;BME280;32573;51.290;6.926;2024-02-26T02:34:31;98461.69;;;8.07;100.00
46836;BME280;32573;51.290;6.926;2024-02-26T02:37:01;98467.72;;;8.06;100.00
46836;BME280;32573;51.290;6.926;2024-02-26T02:39:30;98458.16;;;8.03;100.00
46836;BME280;32573;51.290;6.926;2024-02-26T02:41:59;98456.41;;;8.02;100.00
46836;BME280;32573;51.290;6.926;2024-02-26T02:44:27;98454.63;;;7.96;100.00
46836;BME280;32573;51.290;6.926;2024-02-26T02:46:55;98451.97;;;7.93;100.00
46836;BME280;32573;51.290;6.926;2024-02-26T02:49:23;98447.59;;;7.89;100.00
46836;BME280;32573;51.290;6.926;2024-02-26T02:51:52;98438.88;;;7.84;100.00
46836;BME280;32573;51.290;6.926;2024-02-26T02:54:21;98440.56;;;7.79;100.00
46836;BME280;32573;51.290;6.926;2024-02-26T02:56:51;98444.84;;;7.74;100.00
46836;BME280;32573;51.290;6.926;2024-02-26T02:59:19;98430.00;;;7.68;100.00
46836;BME280;32573;51.290;6.926;2024-02-26T03:01:47;98429.06;;;7.63;100.00
46836;BME280;32573;51.290;6.926;2024-02-26T03:04:16;98431.69;;;7.62;100.00
46836;BME280;32573;51.290;6.926;2024-02-26T03:06:44;98429.91;;;7.61;100.00
46836;BME280;32573;51.290;6.926;2024-02-26T03:09:13;98429.84;;;7.56;100.00
46836;BME280;32573;51.290;6.926;2024-02-26T03:11:41;98429.84;;;7.54;100.00
46836;BME280;32573;51.290;6.926;2024-02-26T03:14:11;98433.31;;;7.52;100.00
46836;BME280;32573;51.290;6.926;2024-02-26T03:16:40;98433.28;;;7.50;100.00
46836;BME280;32573;51.290;6.926;2024-02-26T03:19:08;98436.75;;;7.49;100.00
46836;BME280;32573;51.290;6.926;2024-02-26T03:21:37;98436.75;;;7.49;100.00
46836;BME280;32573;51.290;6.926;2024-02-26T03:24:06;98430.66;;;7.49;100.00
46836;BME280;32573;51.290;6.926;2024-02-26T03:26:36;98428.06;;;7.49;100.00
46836;BME280;32573;51.290;6.926;2024-02-26T03:29:04;98431.53;;;7.49;100.00
46836;BME280;32573;51.290;6.926;2024-02-26T03:31:34;98426.34;;;7.49;100.00
46836;BME280;32573;51.290;6.926;2024-02-26T03:34:02;98428.94;;;7.51;100.00
46836;BME280;32573;51.290;6.926;2024-02-26T03:36:30;98428.94;;;7.51;100.00
46836;BME280;32573;51.290;6.926;2024-02-26T03:38:59;98426.34;;;7.52;100.00
46836;BME280;32573;51.290;6.926;2024-02-26T03:41:27;98423.75;;;7.52;100.00
46836;BME280;32573;51.290;6.926;2024-02-26T03:43:56;98419.34;;;7.48;100.00
46836;BME280;32573;51.290;6.926;2024-02-26T03:46:24;98423.69;;;7.48;100.00
46836;BME280;32573;51.290;6.926;2024-02-26T03:48:53;98416.69;;;7.44;100.00
46836;BME280;32573;51.290;6.926;2024-02-26T03:51:22;98413.16;;;7.39;100.00
46836;BME280;32573;51.290;6.926;2024-02-26T03:53:50;98420.09;;;7.35;100.00
46836;BME280;32573;51.290;6.926;2024-02-26T03:56:19;98419.16;;;7.30;100.00
46836;BME280;32573;51.290;6.926;2024-02-26T03:58:47;98418.22;;;7.25;100.00
46836;BME280;32573;51.290;6.926;2024-02-26T04:01:16;98422.53;;;7.23;100.00
46836;BME280;32573;51.290;6.926;2024-02-26T04:03:44;98425.09;;;7.21;100.00
46836;BME280;32573;51.290;6.926;2024-02-26T04:06:14;98430.31;;;7.20;100.00
46836;BME280;32573;51.290;6.926;2024-02-26T04:08:42;98427.66;;;7.17;100.00
46836;BME280;32573;51.290;6.926;2024-02-26T04:11:10;98422.41;;;7.13;100.00
46836;BME280;32573;51.290;6.926;2024-02-26T04:13:39;98440.56;;;7.10;100.00
46836;BME280;32573;51.290;6.926;2024-02-26T04:16:07;98440.53;;;7.07;100.00
46836;BME280;32573;51.290;6.926;2024-02-26T04:18:36;98441.34;;;7.03;100.00
46836;BME280;32573;51.290;6.926;2024-02-26T04:21:05;98439.59;;;7.02;100.00
46836;BME280;32573;51.290;6.926;2024-02-26T04:23:36;98437.00;;;7.02;100.00
46836;BME280;32573;51.290;6.926;2024-02-26T04:26:05;98441.31;;;7.00;100.00
46836;BME280;32573;51.290;6.926;2024-02-26T04:28:33;98448.22;;;6.98;100.00
46836;BME280;32573;51.290;6.926;2024-02-26T04:31:01;98453.41;;;6.98;100.00
46836;BME280;32573;51.290;6.926;2024-02-26T04:33:30;98446.47;;;6.97;100.00
46836;BME280;32573;51.290;6.926;2024-02-26T04:35:58;98449.06;;;6.97;100.00
46836;BME280;32573;51.290;6.926;2024-02-26T04:38:27;98456.88;;;6.97;100.00
46836;BME280;32573;51.290;6.926;2024-02-26T04:40:56;98461.19;;;6.95;100.00
46836;BME280;32573;51.290;6.926;2024-02-26T04:43:25;98455.06;;;6.93;100.00
46836;BME280;32573;51.290;6.926;2024-02-26T04:45:53;98466.34;;;6.94;100.00
46836;BME280;32573;51.290;6.926;2024-02-26T04:48:23;98460.28;;;6.93;100.00
46836;BME280;32573;51.290;6.926;2024-02-26T04:50:52;98456.78;;;6.91;100.00
46836;BME280;32573;51.290;6.926;2024-02-26T04:53:20;98460.25;;;6.90;100.00
46836;BME280;32573;51.290;6.926;2024-02-26T04:55:49;98455.03;;;6.90;100.00
46836;BME280;32573;51.290;6.926;2024-02-26T04:58:18;98466.31;;;6.90;100.00
46836;BME280;32573;51.290;6.926;2024-02-26T05:00:47;98471.50;;;6.89;100.00
46836;BME280;32573;51.290;6.926;2024-02-26T05:03:15;98471.47;;;6.87;100.00
46836;BME280;32573;51.290;6.926;2024-02-26T05:05:44;98466.22;;;6.86;100.00
46836;BME280;32573;51.290;6.926;2024-02-26T05:08:13;98467.06;;;6.83;100.00
46836;BME280;32573;51.290;6.926;2024-02-26T05:10:41;98461.81;;;6.80;100.00
46836;BME280;32573;51.290;6.926;2024-02-26T05:13:10;98455.75;;;6.80;100.00
46836;BME280;32573;51.290;6.926;2024-02-26T05:15:40;98468.72;;;6.77;100.00
46836;BME280;32573;51.290;6.926;2024-02-26T05:18:08;98468.72;;;6.77;100.00
46836;BME280;32573;51.290;6.926;2024-02-26T05:20:36;98461.72;;;6.73;100.00
46836;BME280;32573;51.290;6.926;2024-02-26T05:23:05;98469.47;;;6.71;100.00
46836;BME280;32573;51.290;6.926;2024-02-26T05:25:33;98479.00;;;6.70;100.00
46836;BME280;32573;51.290;6.926;2024-02-26T05:28:01;98479.00;;;6.70;100.00
46836;BME280;32573;51.290;6.926;2024-02-26T05:30:30;98479.00;;;6.70;100.00
46836;BME280;32573;51.290;6.926;2024-02-26T05:32:59;98490.28;;;6.71;100.00
46836;BME280;32573;51.290;6.926;2024-02-26T05:35:28;98487.66;;;6.69;100.00
46836;BME280;32573;51.290;6.926;2024-02-26T05:37:56;98491.13;;;6.70;100.00
46836;BME280;32573;51.290;6.926;2024-02-26T05:40:24;98485.91;;;6.68;100.00
46836;BME280;32573;51.290;6.926;2024-02-26T05:42:53;98482.44;;;6.66;100.00
46836;BME280;32573;51.290;6.926;2024-02-26T05:45:21;98487.63;;;6.66;100.00
46836;BME280;32573;51.290;6.926;2024-02-26T05:47:49;98492.81;;;6.66;100.00
46836;BME280;32573;51.290;6.926;2024-02-26T05:50:19;98498.81;;;6.64;100.00
46836;BME280;32573;51.290;6.926;2024-02-26T05:52:47;98493.56;;;6.61;100.00
46836;BME280;32573;51.290;6.926;2024-02-26T05:55:16;98502.25;;;6.60;100.00
46836;BME280;32573;51.290;6.926;2024-02-26T05:57:44;98506.56;;;6.59;100.00
46836;BME280;32573;51.290;6.926;2024-02-26T06:00:13;98505.66;;;6.59;100.00
46836;BME280;32573;51.290;6.926;2024-02-26T06:02:42;98510.88;;;6.59;100.00
46836;BME280;32573;51.290;6.926;2024-02-26T06:05:10;98510.00;;;6.58;100.00
46836;BME280;32573;51.290;6.926;2024-02-26T06:07:40;98514.31;;;6.58;100.00
46836;BME280;32573;51.290;6.926;2024-02-26T06:10:09;98513.47;;;6.57;100.00
46836;BME280;32573;51.290;6.926;2024-02-26T06:12:37;98514.31;;;6.58;100.00
46836;BME280;32573;51.290;6.926;2024-02-26T06:15:06;98515.19;;;6.58;100.00
46836;BME280;32573;51.290;6.926;2024-02-26T06:17:34;98523.00;;;6.57;100.00
46836;BME280;32573;51.290;6.926;2024-02-26T06:20:03;98526.41;;;6.56;100.00
46836;BME280;32573;51.290;6.926;2024-02-26T06:22:33;98520.34;;;6.55;100.00
46836;BME280;32573;51.290;6.926;2024-02-26T06:25:03;98528.16;;;6.55;100.00
46836;BME280;32573;51.290;6.926;2024-02-26T06:27:32;98523.81;;;6.54;100.00
46836;BME280;32573;51.290;6.926;2024-02-26T06:30:00;98535.94;;;6.55;100.00
46836;BME280;32573;51.290;6.926;2024-02-26T06:32:28;98540.25;;;6.53;100.00
46836;BME280;32573;51.290;6.926;2024-02-26T06:34:56;98544.53;;;6.51;100.00
46836;BME280;32573;51.290;6.926;2024-02-26T06:37:25;98548.84;;;6.51;100.00
46836;BME280;32573;51.290;6.926;2024-02-26T06:39:53;98538.47;;;6.49;100.00
46836;BME280;32573;51.290;6.926;2024-02-26T06:42:23;98540.19;;;6.50;100.00
46836;BME280;32573;51.290;6.926;2024-02-26T06:44:51;98545.34;;;6.48;100.00
46836;BME280;32573;51.290;6.926;2024-02-26T06:47:19;98548.78;;;6.46;100.00
46836;BME280;32573;51.290;6.926;2024-02-26T06:49:48;98551.38;;;6.46;100.00
46836;BME280;32573;51.290;6.926;2024-02-26T06:52:16;98552.22;;;6.45;100.00
46836;BME280;32573;51.290;6.926;2024-02-26T06:54:44;98596.34;;;6.42;100.00
46836;BME280;32573;51.290;6.926;2024-02-26T06:57:15;98551.28;;;6.40;100.00
46836;BME280;32573;51.290;6.926;2024-02-26T06:59:44;98558.16;;;6.38;100.00
46836;BME280;32573;51.290;6.926;2024-02-26T07:02:14;98567.69;;;6.37;100.00
46836;BME280;32573;51.290;6.926;2024-02-26T07:04:43;98560.75;;;6.38;100.00
46836;BME280;32573;51.290;6.926;2024-02-26T07:07:11;98561.66;;;6.40;100.00
46836;BME280;32573;51.290;6.926;2024-02-26T07:09:42;98572.88;;;6.39;100.00
46836;BME280;32573;51.290;6.926;2024-02-26T07:12:10;98568.56;;;6.38;100.00
46836;BME280;32573;51.290;6.926;2024-02-26T07:14:38;98578.09;;;6.39;100.00
46836;BME280;32573;51.290;6.926;2024-02-26T07:17:08;98582.41;;;6.37;100.00
46836;BME280;32573;51.290;6.926;2024-02-26T07:19:36;98586.69;;;6.36;100.00
46836;BME280;32573;51.290;6.926;2024-02-26T07:22:04;98582.41;;;6.37;100.00
46836;BME280;32573;51.290;6.926;2024-02-26T07:24:33;98584.16;;;6.38;100.00
46836;BME280;32573;51.290;6.926;2024-02-26T07:27:01;98579.81;;;6.38;100.00
46836;BME280;32573;51.290;6.926;2024-02-26T07:29:29;98597.13;;;6.38;100.00
46836;BME280;32573;51.290;6.926;2024-02-26T07:31:58;98591.06;;;6.39;100.00
46836;BME280;32573;51.290;6.926;2024-02-26T07:34:27;98591.06;;;6.39;100.00
46836;BME280;32573;51.290;6.926;2024-02-26T07:36:57;98601.47;;;6.39;100.00
46836;BME280;32573;51.290;6.926;2024-02-26T07:39:25;98592.84;;;6.40;100.00
46836;BME280;32573;51.290;6.926;2024-02-26T07:41:53;98610.13;;;6.38;100.00
46836;BME280;32573;51.290;6.926;2024-02-26T07:44:22;98599.69;;;6.36;100.00
46836;BME280;32573;51.290;6.926;2024-02-26T07:46:50;98600.56;;;6.35;100.00
46836;BME280;32573;51.290;6.926;2024-02-26T07:49:18;98593.63;;;6.34;100.00
46836;BME280;32573;51.290;6.926;2024-02-26T07:51:48;98602.28;;;6.35;100.00
46836;BME280;32573;51.290;6.926;2024-02-26T07:54:17;98603.19;;;6.37;100.00
46836;BME280;32573;51.290;6.926;2024-02-26T07:56:46;98604.06;;;6.37;100.00
46836;BME280;32573;51.290;6.926;2024-02-26T07:59:14;98605.84;;;6.40;100.00
46836;BME280;32573;51.290;6.926;2024-02-26T08:01:43;98611.94;;;6.42;100.00
46836;BME280;32573;51.290;6.926;2024-02-26T08:04:18;98606.75;;;6.42;100.00
46836;BME280;32573;51.290;6.926;2024-02-26T08:06:46;98619.75;;;6.42;100.00
46836;BME280;32573;51.290;6.926;2024-02-26T08:09:16;98619.75;;;6.43;100.00
46836;BME280;32573;51.290;6.926;2024-02-26T08:11:44;98620.63;;;6.44;100.00
46836;BME280;32573;51.290;6.926;2024-02-26T08:14:13;98618.88;;;6.43;100.00
46836;BME280;32573;51.290;6.926;2024-02-26T08:16:41;98621.47;;;6.43;100.00
46836;BME280;32573;51.290;6.926;2024-02-26T08:19:09;98630.16;;;6.43;100.00
46836;BME280;32573;51.290;6.926;2024-02-26T08:21:40;98627.59;;;6.45;100.00
46836;BME280;32573;51.290;6.926;2024-02-26T08:24:09;98631.09;;;6.47;100.00
46836;BME280;32573;51.290;6.926;2024-02-26T08:26:38;98627.66;;;6.48;100.00
46836;BME280;32573;51.290;6.926;2024-02-26T08:29:07;98638.09;;;6.51;100.00
46836;BME280;32573;51.290;6.926;2024-02-26T08:31:35;98639.84;;;6.52;100.00
46836;BME280;32573;51.290;6.926;2024-02-26T08:34:04;98637.25;;;6.52;100.00
46836;BME280;32573;51.290;6.926;2024-02-26T08:36:34;98661.53;;;6.53;100.00
46836;BME280;32573;51.290;6.926;2024-02-26T08:39:02;98650.31;;;6.55;100.00
46836;BME280;32573;51.290;6.926;2024-02-26T08:41:31;98655.56;;;6.58;100.00
46836;BME280;32573;51.290;6.926;2024-02-26T08:44:00;98650.34;;;6.58;100.00
46836;BME280;32573;51.290;6.926;2024-02-26T08:46:28;98654.75;;;6.61;100.00
46836;BME280;32573;51.290;6.926;2024-02-26T08:48:57;98658.22;;;6.61;100.00
46836;BME280;32573;51.290;6.926;2024-02-26T08:51:25;98656.50;;;6.62;100.00
46836;BME280;32573;51.290;6.926;2024-02-26T08:53:54;98659.97;;;6.62;100.00
46836;BME280;32573;51.290;6.926;2024-02-26T08:56:22;98671.28;;;6.64;100.00
46836;BME280;32573;51.290;6.926;2024-02-26T08:58:50;98671.28;;;6.66;100.00
46836;BME280;32573;51.290;6.926;2024-02-26T09:01:22;98687.78;;;6.66;100.00
46836;BME280;32573;51.290;6.926;2024-02-26T09:03:50;98688.66;;;6.67;100.00
46836;BME280;32573;51.290;6.926;2024-02-26T09:06:19;98692.13;;;6.67;100.00
46836;BME280;32573;51.290;6.926;2024-02-26T09:08:47;98688.69;;;6.68;100.00
46836;BME280;32573;51.290;6.926;2024-02-26T09:11:16;98686.06;;;6.67;100.00
46836;BME280;32573;51.290;6.926;2024-02-26T09:13:44;98687.78;;;6.66;100.00
46836;BME280;32573;51.290;6.926;2024-02-26T09:16:12;98688.63;;;6.65;100.00
46836;BME280;32573;51.290;6.926;2024-02-26T09:18:42;98693.88;;;6.68;100.00
46836;BME280;32573;51.290;6.926;2024-02-26T09:21:11;98690.44;;;6.69;100.00
46836;BME280;32573;51.290;6.926;2024-02-26T09:23:39;98687.00;;;6.70;100.00
46836;BME280;32573;51.290;6.926;2024-02-26T09:26:07;98695.66;;;6.71;100.00
46836;BME280;32573;51.290;6.926;2024-02-26T09:28:36;98701.75;;;6.72;100.00
46836;BME280;32573;51.290;6.926;2024-02-26T09:31:05;98705.22;;;6.72;100.00
46836;BME280;32573;51.290;6.926;2024-02-26T09:33:34;98704.41;;;6.75;100.00
46836;BME280;32573;51.290;6.926;2024-02-26T09:36:04;98708.75;;;6.76;100.00
46836;BME280;32573;51.290;6.926;2024-02-26T09:38:33;98707.03;;;6.76;100.00
46836;BME280;32573;51.290;6.926;2024-02-26T09:41:22;98720.06;;;6.78;100.00
46836;BME280;32573;51.290;6.926;2024-02-26T09:43:56;98731.31;;;6.77;100.00
46836;BME280;32573;51.290;6.926;2024-02-26T09:46:25;98733.06;;;6.78;100.00
46836;BME280;32573;51.290;6.926;2024-02-26T09:48:53;98729.66;;;6.80;100.00
46836;BME280;32573;51.290;6.926;2024-02-26T09:51:24;98739.19;;;6.80;100.00
46836;BME280;32573;51.290;6.926;2024-02-26T09:53:54;98734.81;;;6.79;100.00
46836;BME280;32573;51.290;6.926;2024-02-26T09:56:24;98746.97;;;6.80;100.00
46836;BME280;32573;51.290;6.926;2024-02-26T09:58:54;98747.81;;;6.79;100.00
46836;BME280;32573;51.290;6.926;2024-02-26T10:01:24;98753.00;;;6.79;100.00
46836;BME280;32573;51.290;6.926;2024-02-26T10:03:55;98748.72;;;6.79;100.00
46836;BME280;32573;51.290;6.926;2024-02-26T10:06:26;98747.88;;;6.82;100.00
46836;BME280;32573;51.290;6.926;2024-02-26T10:08:56;98755.69;;;6.83;100.00
46836;BME280;32573;51.290;6.926;2024-02-26T10:11:26;98768.78;;;6.86;100.00
46836;BME280;32573;51.290;6.926;2024-02-26T10:13:55;98761.88;;;6.88;100.00
46836;BME280;32573;51.290;6.926;2024-02-26T10:16:24;98761.91;;;6.90;100.00
46836;BME280;32573;51.290;6.926;2024-02-26T10:18:53;98768.03;;;6.92;100.00
46836;BME280;32573;51.290;6.926;2024-02-26T10:21:27;98767.16;;;6.93;100.00
46836;BME280;32573;51.290;6.926;2024-02-26T10:23:56;98776.75;;;6.96;100.00
46836;BME280;32573;51.290;6.926;2024-02-26T10:26:24;98774.19;;;6.97;100.00
46836;BME280;32573;51.290;6.926;2024-02-26T10:28:52;98782.88;;;6.98;100.00
46836;BME280;32573;51.290;6.926;2024-02-26T10:31:22;98782.91;;;6.99;100.00
46836;BME280;32573;51.290;6.926;2024-02-26T10:33:55;98784.69;;;7.03;100.00
46836;BME280;32573;51.290;6.926;2024-02-26T10:36:27;98788.22;;;7.05;100.00
46836;BME280;32573;51.290;6.926;2024-02-26T10:39:14;98783.06;;;7.08;100.00
46836;BME280;32573;51.290;6.926;2024-02-26T10:41:44;98788.25;;;7.08;100.00
46836;BME280;32573;51.290;6.926;2024-02-26T10:44:13;98797.91;;;7.12;100.00
46836;BME280;32573;51.290;6.926;2024-02-26T10:46:47;98796.16;;;7.13;100.00
46836;BME280;32573;51.290;6.926;2024-02-26T10:49:16;98804.00;;;7.16;100.00
46836;BME280;32573;51.290;6.926;2024-02-26T10:51:52;98811.00;;;7.19;100.00
46836;BME280;32573;51.290;6.926;2024-02-26T10:54:25;98810.19;;;7.20;100.00
46836;BME280;32573;51.290;6.926;2024-02-26T10:56:56;98818.91;;;7.23;100.00
46836;BME280;32573;51.290;6.926;2024-02-26T10:59:26;98804.16;;;7.24;100.00
46836;BME280;32573;51.290;6.926;2024-02-26T11:01:55;98810.28;;;7.26;100.00
46836;BME280;32573;51.290;6.926;2024-02-26T11:04:24;98820.69;;;7.26;100.00
46836;BME280;32573;51.290;6.926;2024-02-26T11:06:57;98827.66;;;7.27;100.00
46836;BME280;32573;51.290;6.926;2024-02-26T11:09:26;98823.28;;;7.26;100.00
46836;BME280;32573;51.290;6.926;2024-02-26T11:11:57;98825.06;;;7.27;100.00
46836;BME280;32573;51.290;6.926;2024-02-26T11:14:26;98823.34;;;7.27;100.00
46836;BME280;32573;51.290;6.926;2024-02-26T11:16:58;98828.56;;;7.29;100.00
46836;BME280;32573;51.290;6.926;2024-02-26T11:19:27;98825.16;;;7.33;100.00
46836;BME280;32573;51.290;6.926;2024-02-26T11:22:02;98834.78;;;7.37;100.00
46836;BME280;32573;51.290;6.926;2024-02-26T11:24:48;98831.41;;;7.43;100.00
46836;BME280;32573;51.290;6.926;2024-02-26T11:27:19;98828.91;;;7.47;100.00
46836;BME280;32573;51.290;6.926;2024-02-26T11:29:51;98834.16;;;7.50;100.00
46836;BME280;32573;51.290;6.926;2024-02-26T11:32:21;98829.81;;;7.51;100.00
46836;BME280;32573;51.290;6.926;2024-02-26T11:34:49;98834.22;;;7.53;100.00
46836;BME280;32573;51.290;6.926;2024-02-26T11:37:20;98838.59;;;7.54;100.00
46836;BME280;32573;51.290;6.926;2024-02-26T11:39:51;98833.38;;;7.56;100.00
46836;BME280;32573;51.290;6.926;2024-02-26T11:42:23;98836.91;;;7.56;100.00
46836;BME280;32573;51.290;6.926;2024-02-26T11:44:52;98838.63;;;7.57;100.00
46836;BME280;32573;51.290;6.926;2024-02-26T11:47:22;98832.56;;;7.59;100.00
46836;BME280;32573;51.290;6.926;2024-02-26T11:49:50;98841.28;;;7.61;100.00
46836;BME280;32573;51.290;6.926;2024-02-26T11:52:20;98843.88;;;7.61;100.00
46836;BME280;32573;51.290;6.926;2024-02-26T11:54:49;98845.63;;;7.60;100.00
46836;BME280;32573;51.290;6.926;2024-02-26T11:57:20;98846.50;;;7.61;100.00
46836;BME280;32573;51.290;6.926;2024-02-26T11:59:49;98849.09;;;7.61;100.00
46836;BME280;32573;51.290;6.926;2024-02-26T12:02:38;98849.16;;;7.64;100.00
46836;BME280;32573;51.290;6.926;2024-02-26T12:05:10;98851.75;;;7.64;100.00
46836;BME280;32573;51.290;6.926;2024-02-26T12:07:44;98856.13;;;7.65;100.00
46836;BME280;32573;51.290;6.926;2024-02-26T12:10:21;98863.06;;;7.66;100.00
46836;BME280;32573;51.290;6.926;2024-02-26T12:12:59;98865.69;;;7.66;100.00
46836;BME280;32573;51.290;6.926;2024-02-26T12:15:32;98860.47;;;7.66;100.00
46836;BME280;32573;51.290;6.926;2024-02-26T12:18:02;98862.25;;;7.67;100.00
46836;BME280;32573;51.290;6.926;2024-02-26T12:20:31;98869.19;;;7.68;100.00
46836;BME280;32573;51.290;6.926;2024-02-26T12:23:01;98864.03;;;7.69;100.00
46836;BME280;32573;51.290;6.926;2024-02-26T12:25:31;98864.03;;;7.71;100.00
46836;BME280;32573;51.290;6.926;2024-02-26T12:27:59;98867.56;;;7.73;100.00
46836;BME280;32573;51.290;6.926;2024-02-26T12:30:30;98868.50;;;7.76;100.00
46836;BME280;32573;51.290;6.926;2024-02-26T12:33:00;98871.97;;;7.78;100.00
46836;BME280;32573;51.290;6.926;2024-02-26T12:35:30;98865.94;;;7.81;100.00
46836;BME280;32573;51.290;6.926;2024-02-26T12:38:00;98864.25;;;7.83;100.00
46836;BME280;32573;51.290;6.926;2024-02-26T12:40:31;98872.97;;;7.85;100.00
46836;BME280;32573;51.290;6.926;2024-02-26T12:42:59;98875.59;;;7.85;100.00
46836;BME280;32573;51.290;6.926;2024-02-26T12:45:28;98879.06;;;7.84;100.00
46836;BME280;32573;51.290;6.926;2024-02-26T12:47:57;98872.97;;;7.85;100.00
46836;BME280;32573;51.290;6.926;2024-02-26T12:50:27;98882.56;;;7.88;100.00
46836;BME280;32573;51.290;6.926;2024-02-26T12:52:56;98886.09;;;7.90;100.00
46836;BME280;32573;51.290;6.926;2024-02-26T12:55:26;98888.75;;;7.91;100.00
46836;BME280;32573;51.290;6.926;2024-02-26T12:57:55;98889.63;;;7.93;100.00
46836;BME280;32573;51.290;6.926;2024-02-26T13:00:25;98893.13;;;7.94;100.00
46836;BME280;32573;51.290;6.926;2024-02-26T13:02:55;98895.69;;;7.92;100.00
46836;BME280;32573;51.290;6.926;2024-02-26T13:05:24;98897.44;;;7.93;100.00
46836;BME280;32573;51.290;6.926;2024-02-26T13:07:53;98911.38;;;7.95;100.00
46836;BME280;32573;51.290;6.926;2024-02-26T13:10:21;98908.78;;;7.97;100.00